KGDV/GDV METAR and TAF weather

Enter ICAO airport designator
Station Type Date Time Source
KGDV METAR 2020/11/25 22:56 UTC NOAA

KGDV 252256Z AUTO 29010KT 10SM BKN055 OVC075 07/M02 A2969 RMK AO2 SLP071 T00721022


Station Type Date Time Source
KGDV Decoded METAR 2020/11/25 22:56 UTC NOAA

Glendive, Dawson Community Airport, MT, United States (KGDV) 47-08N 104-48W
Nov 25, 2020 - 05:56 PM EST / 2020.11.25 2256 UTC
Wind: from the WNW (290 degrees) at 12 MPH (10 KT):0
Visibility: 10 mile(s):0
Sky conditions: overcast
Temperature: 45.0 F (7.2 C)
Dew Point: 28.0 F (-2.2 C)
Relative Humidity: 51%
Pressure (altimeter): 29.69 in. Hg (1005 hPa)
ob: KGDV 252256Z AUTO 29010KT 10SM BKN055 OVC075 07/M02 A2969 RMK AO2 SLP071 T00721022
cycle: 23

Station Type Date Time Source
KGDV TAF 2020/11/25 18:24 UTC NOAA

TAF KGDV 251722Z 2518/2618 19009KT P6SM BKN150
FM260100 29008KT P6SM VCSH SCT040 OVC090 WS020/30040KT
FM261500 24009KT P6SM SCT100 WS020/28040KT
FM261700 26013G24KT P6SM SCT120

Example: see airport list